Terminal Aerodrome Forecast
Issued by NWS Charleston, WV

Current Version | Previous Version | Text Only | Print | Product List | Glossary Off
Versions: 1 2 3 4 5 6 7 8 9 10 11 12 13 14 15 16 17 18 19 20 21

042
FTUS41 KRLX 211128
TAFPKB
TAF
KPKB 211128Z 2112/2212 25005KT P6SM FEW010 BKN013 OVC045
     FM211500 26008KT P6SM BKN020
     FM211700 27009KT P6SM BKN035
     FM211900 27009KT P6SM SCT060
     FM220200 28005KT P6SM FEW130
     FM221000 00000KT 5SM BR SCT001=

USA.gov is the U.S. government's official web portal to all federal, state and local government web resources and services.